Lilac (350, 352) Station Data

Red Flag Warning: No
Fire Weather Zone: 250
SDGE Region: North East
Lat/Lon: 33.277/-117.069

Observations

Time Wind Speed/Gust Temp(F) RH Fuel Moist Fuel Temp(F) Dewpt(F) Tmax(F) Tmin(F) Accum Precip 10-min Precip SL Press(mb)
2/27 11:40pm 257 7 G 9 50° 100% - - 50° 54.2° 44.5° - - -
2/27 11:20pm 265 2 G 3 50° 100% - - 50° 54.2° 44.5° - - -
2/27 11:10pm 251 2 G 4 50° 100% - - 50° 54.2° 44.5° - - -
2/27 11:00pm 248 4 G 6 50° 100% - - 50° 54.2° 44.5° - - -
2/27 10:50pm 222 2 G 4 50° 100% - - 50° 54.2° 44.5° - - -
2/27 10:40pm 244 3 G 4 50° 100% - - 50° 54.2° 44.5° - - -
2/27 10:30pm 231 3 G 6 50° 100% - - 50° 54.2° 44.5° - - -
2/27 10:20pm 250 3 G 5 50° 100% - - 50° 54.2° 44.5° - - -
2/27 10:10pm 302 2 G 3 50° 100% - - 50° 54.2° 44.5° - - -
2/27 10:00pm 285 3 G 4 50° 100% - - 50° 54.2° 44.5° - - -
2/27 9:50pm 288 2 G 5 50° 100% - - 50° 54.2° 44.5° - - -
2/27 9:40pm 255 3 G 6 50° 100% - - 50° 54.2° 44.5° - - -
2/27 9:30pm 272 4 G 7 50° 100% - - 50° 54.2° 44.5° - - -
2/27 9:20pm 276 7 G 10 50° 100% - - 50° 54.2° 44.5° - - -
2/27 9:10pm 272 6 G 9 50° 100% - - 50° 54.2° 44.5° - - -
2/27 9:00pm 263 3 G 6 50° 100% - - 50° 54.2° 44.5° - - -
2/27 8:50pm 271 2 G 4 50° 100% - - 50° 54.2° 44.5° - - -
2/27 8:40pm 250 0 G 2 50° 100% - - 50° 54.2° 44.5° - - -
2/27 8:30pm 229 1 G 1 50° 100% - - 50° 54.2° 44.5° - - -
2/27 8:20pm 208 1 G 2 50° 100% - - 50° 54.2° 44.5° - - -
2/27 8:10pm 214 1 G 2 51° 100% - - 51° 54.2° 44.5° - - -
2/27 8:00pm 286 2 G 3 51° 100% - - 51° 54.2° 44.5° - - -
2/27 7:50pm 289 4 G 6 51° 100% - - 51° 54.2° 44.5° - - -
2/27 7:40pm 270 8 G 11 51° 100% - - 51° 54.2° 44.5° - - -
2/27 7:30pm 234 8 G 15 52° 100% - - 52° 54.2° 44.5° - - -
2/27 7:20pm 211 6 G 12 52° 100% - - 52° 54.2° 44.5° - - -
2/27 7:10pm 197 6 G 11 52° 100% - - 52° 54.2° 44.5° - - -
2/27 7:00pm 196 5 G 11 52° 100% - - 52° 54.2° 44.5° - - -
2/27 6:50pm 219 8 G 14 52° 100% - - 52° 54.2° 44.5° - - -
2/27 6:40pm 226 8 G 13 52° 100% - - 52° 54.2° 44.5° - - -
2/27 6:30pm 222 12 G 21 52° 100% - - 52° 54.2° 44.5° - - -
2/27 6:20pm 217 8 G 18 52° 100% - - 52° 54.2° 44.5° - - -
2/27 6:10pm 202 8 G 17 52° 100% - - 52° 54.2° 44.5° - - -
2/27 6:00pm 198 9 G 17 52° 100% - - 52° 54.2° 44.5° - - -
2/27 5:50pm 187 10 G 20 52° 100% - - 52° 54.2° 44.5° - - -
2/27 5:40pm 193 9 G 23 52° 100% - - 52° 54.2° 44.5° - - -
2/27 5:30pm 206 10 G 19 52° 100% - - 52° 54.2° 44.5° - - -
2/27 5:20pm 208 12 G 23 52° 100% - - 52° 54.2° 44.5° - - -
2/27 5:10pm 209 11 G 19 52° 100% - - 52° 54.2° 44.5° - - -
2/27 5:00pm 203 8 G 17 52° 100% - - 52° 54.2° 44.5° - - -
2/27 4:50pm 186 7 G 13 52° 100% - - 52° 54.2° 44.5° - - -
2/27 4:40pm 206 6 G 14 52° 100% - - 52° 54.2° 44.5° - - -
2/27 4:30pm 198 8 G 18 53° 100% - - 53° 54.2° 44.5° - - -
2/27 4:20pm 188 12 G 19 53° 100% - - 53° 54.2° 44.5° - - -
2/27 4:10pm 182 10 G 21 53° 100% - - 53° 54.2° 44.5° - - -
2/27 4:00pm 181 11 G 21 53° 100% - - 53° 54.2° 44.5° - - -
2/27 3:50pm 186 12 G 21 53° 100% - - 53° 54.2° 44.5° - - -
2/27 3:40pm 184 13 G 22 53° 100% - - 53° 54.2° 44.5° - - -
2/27 3:30pm 186 13 G 26 53° 100% - - 53° 54.2° 44.5° - - -
2/27 3:20pm 181 10 G 18 53° 100% - - 53° 54.2° 44.5° - - -
2/27 3:10pm 188 12 G 30 53° 100% - - 53° 54.2° 44.5° - - -
2/27 3:00pm 187 14 G 24 53° 100% - - 53° 54.2° 44.5° - - -
2/27 2:50pm 187 13 G 26 53° 100% - - 53° 54.2° 44.5° - - -
2/27 2:40pm 189 12 G 24 54° 100% - - 54° 54.2° 44.5° - - -
2/27 2:30pm 188 13 G 24 54° 100% - - 54° 54.2° 44.5° - - -
2/27 2:20pm 185 13 G 27 54° 100% - - 54° 54.2° 44.5° - - -
2/27 2:10pm 189 12 G 22 54° 100% - - 54° 54.2° 44.5° - - -
2/27 2:00pm 193 8 G 15 54° 100% - - 54° 54.2° 44.5° - - -
2/27 1:50pm 198 11 G 21 54° 100% - - 54° 54.2° 44.5° - - -
2/27 1:40pm 191 8 G 14 54° 100% - - 54° 54.2° 44.5° - - -
2/27 1:30pm 189 9 G 16 54° 100% - - 54° 54.2° 44.5° - - -
2/27 1:20pm 193 10 G 20 54° 100% - - 54° 54.1° 44.5° - - -
2/27 1:10pm 185 12 G 21 54° 100% - - 54° 54° 44.5° - - -
2/27 1:00pm 179 10 G 17 53° 100% - - 53° 54° 44.5° - - -
2/27 12:50pm 163 11 G 19 53° 100% - - 53° 54° 44.5° - - -
2/27 12:40pm 171 11 G 20 53° 100% - - 53° 54° 44.5° - - -
2/27 12:30pm 168 13 G 19 53° 100% - - 53° 54° 44.5° - - -
2/27 12:20pm 168 10 G 18 53° 100% - - 53° 54° 44.5° - - -
2/27 12:10pm 175 7 G 12 53° 100% - - 53° 54° 44.5° - - -
2/27 12:00pm 180 12 G 21 53° 100% - - 53° 54° 44.5° - - -
2/27 11:50am 152 11 G 20 53° 100% - - 53° 54° 44.5° - - -
2/27 11:40am 168 8 G 14 53° 100% - - 53° 54° 44.5° - - -
2/27 11:30am 178 7 G 14 53° 100% - - 53° 54° 44.5° - - -
2/27 11:20am 175 9 G 17 53° 100% - - 53° 54° 44.5° - - -
2/27 11:10am 168 11 G 20 53° 100% - - 53° 54° 44.5° - - -
2/27 11:00am 172 13 G 21 53° 100% - - 53° 54° 44.5° - - -
2/27 10:50am 181 11 G 20 54° 100% - - 54° 54° 44.5° - - -
2/27 10:40am 177 11 G 21 54° 100% - - 54° 54° 44.5° - - -
2/27 10:30am 176 10 G 19 54° 100% - - 54° 54° 44.5° - - -
2/27 10:20am 183 9 G 19 54° 100% - - 54° 54° 44.5° - - -
2/27 10:10am 185 10 G 20 54° 100% - - 54° 54° 44.5° - - -
2/27 10:00am 183 8 G 16 54° 100% - - 54° 54° 44.5° - - -
2/27 9:50am 189 6 G 11 54° 100% - - 54° 54° 44.5° - - -
2/27 9:40am 188 6 G 15 54° 100% - - 54° 54° 44.5° - - -
2/27 9:30am 186 7 G 12 54° 100% - - 54° 54° 44.5° - - -
2/27 9:20am 194 6 G 13 54° 100% - - 54° 53.9° 44.5° - - -
2/27 9:10am 186 6 G 11 54° 100% - - 54° 53.8° 44.5° - - -
2/27 9:00am 183 6 G 13 54° 100% - - 54° 53.8° 44.5° - - -
2/27 8:50am 180 6 G 10 54° 100% - - 54° 53.8° 44.5° - - -
2/27 8:40am 185 5 G 10 54° 100% - - 54° 53.8° 44.5° - - -
2/27 8:30am 174 7 G 12 53° 100% - - 53° 53.7° 44.5° - - -
2/27 8:20am 170 5 G 9 53° 100% - - 53° 53.4° 44.5° - - -
2/27 8:10am 178 6 G 10 53° 100% - - 53° 53.2° 44.5° - - -
2/27 8:00am 179 6 G 13 53° 100% - - 53° 53° 44.5° - - -
2/27 7:50am 172 7 G 13 52° 100% - - 52° 52.8° 44.5° - - -
2/27 7:40am 163 6 G 12 52° 100% - - 52° 52.2° 44.5° - - -
2/27 7:30am 151 4 G 8 51° 100% - - 52° 51.8° 44.5° - - -
2/27 7:20am 106 4 G 6 51° 100% - - 51° 51.3° 44.5° - - -
2/27 7:10am 112 3 G 6 51° 100% - - 51° 51° 44.5° - - -
2/27 7:00am 109 4 G 6 50° 100% - - 50° 50.7° 44.5° - - -
2/27 6:50am 107 2 G 4 50° 100% - - 50° 50.2° 44.5° - - -
2/27 6:40am 294 1 G 2 48° 100% - - 48° 49.9° 44.5° - - -
2/27 6:30am 118 3 G 5 50° 100% - - 50° 49.9° 44.5° - - -
2/27 6:20am 91 4 G 6 49° 100% - - 49° 49.5° 44.5° - - -
2/27 6:10am 94 3 G 5 49° 100% - - 49° 49.1° 44.5° - - -
2/27 6:00am 96 2 G 4 48° 100% - - 48° 48.8° 44.5° - - -
2/27 5:50am 78 3 G 5 48° 100% - - 48° 48.8° 44.5° - - -
2/27 5:40am 81 3 G 5 47° 100% - - 47° 48.5° 44.5° - - -
2/27 5:30am 72 4 G 5 46° 100% - - 46° 48.5° 44.5° - - -
2/27 5:20am 44 3 G 4 46° 100% - - 46° 48.5° 44.5° - - -
2/27 5:10am 328 3 G 5 45° 100% - - 45° 48.5° 44.5° - - -
2/27 5:00am 293 2 G 5 45° 100% - - 45° 48.5° 44.5° - - -
2/27 4:50am 280 1 G 2 46° 100% - - 46° 48.5° 44.5° - - -
2/27 4:40am 321 3 G 4 46° 100% - - 46° 48.5° 44.5° - - -
2/27 4:30am 339 2 G 3 47° 100% - - 47° 48.5° 44.5° - - -
2/27 4:20am 117 1 G 4 48° 100% - - 48° 48.5° 44.5° - - -
2/27 4:10am 107 4 G 7 48° 100% - - 48° 48.4° 44.5° - - -
2/27 4:00am 113 3 G 7 48° 100% - - 48° 48° 44.5° - - -
2/27 3:50am 115 2 G 4 47° 100% - - 47° 47.7° 44.5° - - -
2/27 3:40am 98 2 G 3 47° 100% - - 47° 47.7° 44.5° - - -
2/27 3:30am 109 0 G 1 46° 100% - - 46° 47.7° 44.5° - - -
2/27 3:20am 70 1 G 3 47° 100% - - 47° 47.7° 44.5° - - -
2/27 3:10am 93 3 G 5 47° 100% - - 47° 47.7° 44.5° - - -
2/27 3:00am 103 2 G 4 47° 100% - - 47° 47.7° 44.5° - - -
2/27 2:50am 113 1 G 3 47° 100% - - 47° 47.7° 44.5° - - -
2/27 2:40am 147 1 G 3 47° 100% - - 47° 47.7° 44.5° - - -
2/27 2:30am 91 3 G 5 46° 100% - - 46° 47.7° 44.5° - - -
2/27 2:20am 88 3 G 5 46° 100% - - 46° 47.7° 44.5° - - -
2/27 2:10am 81 3 G 5 46° 100% - - 46° 47.7° 44.5° - - -
2/27 2:00am 113 3 G 5 46° 100% - - 46° 47.7° 44.5° - - -
2/27 1:50am 132 3 G 5 47° 93% - - 45° 47.7° 44.5° - - -
2/27 1:40am 133 4 G 5 47° 75% - - 40° 47.7° 44.5° - - -
2/27 1:30am 132 3 G 5 47° 72% - - 39° 47.7° 44.5° - - -
2/27 1:20am 120 3 G 5 47° 71% - - 38° 47.7° 44.5° - - -
2/27 1:10am 112 5 G 8 47° 69% - - 38° 47.7° 44.5° - - -
2/27 1:00am 110 6 G 9 47° 68% - - 37° 47.7° 44.5° - - -
2/27 12:50am 132 4 G 7 46° 68% - - 36° 46.6° 44.5° - - -
2/27 12:40am 108 7 G 12 46° 66% - - 36° 46.4° 44.5° - - -
2/27 12:30am 101 7 G 10 45° 66% - - 35° 45.8° 44.5° - - -
2/27 12:20am 109 7 G 10 45° 67% - - 35° 45.2° 44.5° - - -
2/27 12:10am 108 7 G 10 45° 68% - - 35° 45.1° 44.5° - - -
2/27 12:00am 107 7 G 9 45° 69% - - 35° 53.3° 44.5° - - -
2/26 11:50pm 103 7 G 10 45° 69% - - 35° 53.3° 44.7° - - -
2/26 11:40pm 110 6 G 8 45° 69% - - 36° 53.3° 44.7° - - -
2/26 11:30pm 112 7 G 9 45° 71% - - 36° 53.3° 44.7° - - -
2/26 11:20pm 114 6 G 9 45° 72% - - 37° 53.3° 44.7° - - -
2/26 11:10pm 119 7 G 9 45° 71% - - 37° 53.3° 44.7° - - -
2/26 11:00pm 129 6 G 8 46° 69% - - 37° 53.3° 44.7° - - -
2/26 10:50pm 131 6 G 9 46° 69% - - 37° 53.3° 44.7° - - -
2/26 10:40pm 127 8 G 10 46° 71% - - 37° 53.3° 44.7° - - -
2/26 10:30pm 122 7 G 10 46° 73% - - 37° 53.3° 44.7° - - -
2/26 10:20pm 121 7 G 10 46° 74% - - 38° 53.3° 44.7° - - -
2/26 10:10pm 121 7 G 9 46° 75% - - 38° 53.3° 44.7° - - -
2/26 10:00pm 123 6 G 10 46° 75% - - 39° 53.3° 44.7° - - -
2/26 9:50pm 125 7 G 10 47° 75% - - 39° 53.3° 44.7° - - -
2/26 9:40pm 120 7 G 10 47° 75% - - 39° 53.3° 44.7° - - -
2/26 9:30pm 118 6 G 9 47° 75% - - 40° 53.3° 44.7° - - -
2/26 9:20pm 119 5 G 7 47° 76% - - 40° 53.3° 44.7° - - -
2/26 9:10pm 118 4 G 6 47° 78% - - 40° 53.3° 44.7° - - -
2/26 9:00pm 118 5 G 7 47° 78% - - 40° 53.3° 44.7° - - -
2/26 8:50pm 126 6 G 8 47° 79% - - 40° 53.3° 44.7° - - -
2/26 8:40pm 124 6 G 9 47° 79% - - 40° 53.3° 44.7° - - -
2/26 8:30pm 131 7 G 10 47° 78% - - 40° 53.3° 44.7° - - -
2/26 8:20pm 129 7 G 9 47° 79% - - 41° 53.3° 44.7° - - -
2/26 8:10pm 131 6 G 8 47° 80% - - 41° 53.3° 44.7° - - -
2/26 8:00pm 125 6 G 7 47° 79% - - 41° 53.3° 44.7° - - -
2/26 7:50pm 126 6 G 8 46° 79% - - 40° 53.3° 44.7° - - -
2/26 7:40pm 120 5 G 6 46° 78% - - 40° 53.3° 44.7° - - -
2/26 7:30pm 109 4 G 6 47° 79% - - 40° 53.3° 44.7° - - -
2/26 7:20pm 123 2 G 4 47° 78% - - 41° 53.3° 44.7° - - -
2/26 7:10pm 124 2 G 3 47° 79% - - 41° 53.3° 44.7° - - -
2/26 7:00pm 148 2 G 3 47° 79% - - 41° 53.3° 44.7° - - -
2/26 6:50pm 177 2 G 4 47° 77% - - 40° 53.3° 44.7° - - -
2/26 6:40pm 200 2 G 5 47° 76% - - 40° 53.3° 44.7° - - -
2/26 6:30pm 220 6 G 9 48° 76% - - 40° 53.3° 44.7° - - -
2/26 6:20pm 219 4 G 9 48° 83% - - 43° 53.3° 44.7° - - -
2/26 6:10pm 228 3 G 6 48° 84% - - 44° 53.3° 44.7° - - -
2/26 6:00pm 235 5 G 7 48° 85% - - 44° 53.3° 44.7° - - -
2/26 5:50pm 251 5 G 7 48° 84% - - 44° 53.3° 44.7° - - -
2/26 5:40pm 254 5 G 8 49° 81% - - 43° 53.3° 44.7° - - -
2/26 5:30pm 240 5 G 8 49° 78% - - 43° 53.3° 44.7° - - -
2/26 5:20pm 242 6 G 10 49° 78% - - 43° 53.3° 44.7° - - -
2/26 5:10pm 236 8 G 12 50° 77% - - 43° 53.3° 44.7° - - -
2/26 5:00pm 209 6 G 13 51° 73% - - 42° 53.3° 44.7° - - -